sensor_id;sensor_type;location;lat;lon;timestamp;P1;durP1;ratioP1;P2;durP2;ratioP2
71490;SDS011;59307;50.060;9.150;2023-04-06T00:02:01;9.48;;;5.03;;
71490;SDS011;59307;50.060;9.150;2023-04-06T00:04:26;10.50;;;5.30;;
71490;SDS011;59307;50.060;9.150;2023-04-06T00:06:51;9.83;;;5.03;;
71490;SDS011;59307;50.060;9.150;2023-04-06T00:09:17;9.23;;;5.27;;
71490;SDS011;59307;50.060;9.150;2023-04-06T00:11:42;12.30;;;6.27;;
71490;SDS011;59307;50.060;9.150;2023-04-06T00:14:07;9.90;;;5.67;;
71490;SDS011;59307;50.060;9.150;2023-04-06T00:16:32;9.77;;;5.43;;
71490;SDS011;59307;50.060;9.150;2023-04-06T00:18:57;11.73;;;5.50;;
71490;SDS011;59307;50.060;9.150;2023-04-06T00:21:22;11.63;;;5.90;;
71490;SDS011;59307;50.060;9.150;2023-04-06T00:23:48;10.40;;;5.70;;
71490;SDS011;59307;50.060;9.150;2023-04-06T00:26:13;13.40;;;5.47;;
71490;SDS011;59307;50.060;9.150;2023-04-06T00:28:38;9.77;;;5.20;;
71490;SDS011;59307;50.060;9.150;2023-04-06T00:31:03;13.87;;;5.60;;
71490;SDS011;59307;50.060;9.150;2023-04-06T00:33:28;11.60;;;5.90;;
71490;SDS011;59307;50.060;9.150;2023-04-06T00:35:54;13.60;;;5.97;;
71490;SDS011;59307;50.060;9.150;2023-04-06T00:38:19;12.77;;;6.00;;
71490;SDS011;59307;50.060;9.150;2023-04-06T00:40:44;11.70;;;5.80;;
71490;SDS011;59307;50.060;9.150;2023-04-06T00:43:13;13.47;;;5.97;;
71490;SDS011;59307;50.060;9.150;2023-04-06T00:45:38;10.20;;;5.55;;
71490;SDS011;59307;50.060;9.150;2023-04-06T00:48:04;13.52;;;5.60;;
71490;SDS011;59307;50.060;9.150;2023-04-06T00:50:30;12.10;;;6.20;;
71490;SDS011;59307;50.060;9.150;2023-04-06T00:52:55;9.87;;;5.37;;
71490;SDS011;59307;50.060;9.150;2023-04-06T00:55:20;10.07;;;5.70;;
71490;SDS011;59307;50.060;9.150;2023-04-06T00:57:45;10.07;;;5.67;;
71490;SDS011;59307;50.060;9.150;2023-04-06T01:00:11;13.07;;;5.40;;
71490;SDS011;59307;50.060;9.150;2023-04-06T01:02:37;11.35;;;5.30;;
71490;SDS011;59307;50.060;9.150;2023-04-06T01:05:02;9.67;;;5.30;;
71490;SDS011;59307;50.060;9.150;2023-04-06T01:07:27;10.97;;;5.93;;
71490;SDS011;59307;50.060;9.150;2023-04-06T01:09:53;10.43;;;5.17;;
71490;SDS011;59307;50.060;9.150;2023-04-06T01:12:18;9.57;;;5.15;;
71490;SDS011;59307;50.060;9.150;2023-04-06T01:14:44;9.68;;;5.20;;
71490;SDS011;59307;50.060;9.150;2023-04-06T01:17:10;11.07;;;5.17;;
71490;SDS011;59307;50.060;9.150;2023-04-06T01:19:35;12.87;;;5.47;;
71490;SDS011;59307;50.060;9.150;2023-04-06T01:22:01;10.70;;;5.13;;
71490;SDS011;59307;50.060;9.150;2023-04-06T01:24:26;10.73;;;5.73;;
71490;SDS011;59307;50.060;9.150;2023-04-06T01:26:51;10.37;;;5.57;;
71490;SDS011;59307;50.060;9.150;2023-04-06T01:29:16;14.50;;;5.43;;
71490;SDS011;59307;50.060;9.150;2023-04-06T01:31:42;9.07;;;5.30;;
71490;SDS011;59307;50.060;9.150;2023-04-06T01:34:07;11.50;;;5.47;;
71490;SDS011;59307;50.060;9.150;2023-04-06T01:36:32;10.33;;;5.30;;
71490;SDS011;59307;50.060;9.150;2023-04-06T01:38:57;12.50;;;6.13;;
71490;SDS011;59307;50.060;9.150;2023-04-06T01:41:22;9.07;;;5.03;;
71490;SDS011;59307;50.060;9.150;2023-04-06T01:43:48;11.87;;;5.70;;
71490;SDS011;59307;50.060;9.150;2023-04-06T01:46:14;9.63;;;5.03;;
71490;SDS011;59307;50.060;9.150;2023-04-06T01:48:39;11.93;;;5.70;;
71490;SDS011;59307;50.060;9.150;2023-04-06T01:51:05;11.77;;;5.53;;
71490;SDS011;59307;50.060;9.150;2023-04-06T01:53:30;10.37;;;5.60;;
71490;SDS011;59307;50.060;9.150;2023-04-06T01:55:55;11.80;;;5.83;;
71490;SDS011;59307;50.060;9.150;2023-04-06T01:58:20;9.67;;;5.37;;
71490;SDS011;59307;50.060;9.150;2023-04-06T02:00:45;11.40;;;5.53;;
71490;SDS011;59307;50.060;9.150;2023-04-06T02:03:10;12.43;;;5.77;;
71490;SDS011;59307;50.060;9.150;2023-04-06T02:05:36;11.67;;;5.30;;
71490;SDS011;59307;50.060;9.150;2023-04-06T02:08:06;11.55;;;5.82;;
71490;SDS011;59307;50.060;9.150;2023-04-06T02:10:32;11.30;;;5.40;;
71490;SDS011;59307;50.060;9.150;2023-04-06T02:12:57;13.60;;;5.90;;
71490;SDS011;59307;50.060;9.150;2023-04-06T02:15:22;12.47;;;5.87;;
71490;SDS011;59307;50.060;9.150;2023-04-06T02:17:47;10.63;;;5.87;;
71490;SDS011;59307;50.060;9.150;2023-04-06T02:20:13;12.37;;;5.73;;
71490;SDS011;59307;50.060;9.150;2023-04-06T02:22:38;11.20;;;5.97;;
71490;SDS011;59307;50.060;9.150;2023-04-06T02:25:03;12.13;;;5.93;;
71490;SDS011;59307;50.060;9.150;2023-04-06T02:27:29;12.10;;;5.82;;
71490;SDS011;59307;50.060;9.150;2023-04-06T02:29:54;11.90;;;6.40;;
71490;SDS011;59307;50.060;9.150;2023-04-06T02:32:19;10.40;;;5.87;;
71490;SDS011;59307;50.060;9.150;2023-04-06T02:34:44;11.13;;;5.57;;
71490;SDS011;59307;50.060;9.150;2023-04-06T02:37:09;11.07;;;5.23;;
71490;SDS011;59307;50.060;9.150;2023-04-06T02:39:35;12.70;;;6.03;;
71490;SDS011;59307;50.060;9.150;2023-04-06T02:42:00;13.47;;;5.90;;
71490;SDS011;59307;50.060;9.150;2023-04-06T02:44:25;11.83;;;6.03;;
71490;SDS011;59307;50.060;9.150;2023-04-06T02:46:51;11.23;;;5.67;;
71490;SDS011;59307;50.060;9.150;2023-04-06T02:49:16;13.97;;;6.20;;
71490;SDS011;59307;50.060;9.150;2023-04-06T02:51:41;11.70;;;6.27;;
71490;SDS011;59307;50.060;9.150;2023-04-06T02:54:06;11.70;;;6.57;;
71490;SDS011;59307;50.060;9.150;2023-04-06T02:56:31;10.93;;;5.80;;
71490;SDS011;59307;50.060;9.150;2023-04-06T02:58:57;9.80;;;5.43;;
71490;SDS011;59307;50.060;9.150;2023-04-06T03:01:22;14.60;;;6.63;;
71490;SDS011;59307;50.060;9.150;2023-04-06T03:03:47;13.17;;;6.47;;
71490;SDS011;59307;50.060;9.150;2023-04-06T03:06:12;12.33;;;6.30;;
71490;SDS011;59307;50.060;9.150;2023-04-06T03:08:37;11.47;;;6.33;;
71490;SDS011;59307;50.060;9.150;2023-04-06T03:11:02;14.63;;;6.40;;
71490;SDS011;59307;50.060;9.150;2023-04-06T03:13:28;14.93;;;6.83;;
71490;SDS011;59307;50.060;9.150;2023-04-06T03:15:53;12.77;;;6.37;;
71490;SDS011;59307;50.060;9.150;2023-04-06T03:18:20;13.30;;;6.60;;
71490;SDS011;59307;50.060;9.150;2023-04-06T03:20:46;12.15;;;6.28;;
71490;SDS011;59307;50.060;9.150;2023-04-06T03:23:12;10.70;;;6.25;;
71490;SDS011;59307;50.060;9.150;2023-04-06T03:25:37;14.07;;;6.20;;
71490;SDS011;59307;50.060;9.150;2023-04-06T03:28:04;12.38;;;6.43;;
71490;SDS011;59307;50.060;9.150;2023-04-06T03:30:30;15.50;;;6.57;;
71490;SDS011;59307;50.060;9.150;2023-04-06T03:32:55;13.60;;;6.27;;
71490;SDS011;59307;50.060;9.150;2023-04-06T03:35:20;13.37;;;6.23;;
71490;SDS011;59307;50.060;9.150;2023-04-06T03:37:45;13.70;;;6.30;;
71490;SDS011;59307;50.060;9.150;2023-04-06T03:40:10;13.73;;;6.30;;
71490;SDS011;59307;50.060;9.150;2023-04-06T03:42:36;14.57;;;6.83;;
71490;SDS011;59307;50.060;9.150;2023-04-06T03:45:01;12.17;;;6.57;;
71490;SDS011;59307;50.060;9.150;2023-04-06T03:47:26;18.33;;;7.47;;
71490;SDS011;59307;50.060;9.150;2023-04-06T03:49:51;16.37;;;6.60;;
71490;SDS011;59307;50.060;9.150;2023-04-06T03:52:16;17.43;;;8.00;;
71490;SDS011;59307;50.060;9.150;2023-04-06T03:54:41;14.50;;;7.53;;
71490;SDS011;59307;50.060;9.150;2023-04-06T03:57:07;15.03;;;7.20;;
71490;SDS011;59307;50.060;9.150;2023-04-06T03:59:32;11.43;;;6.33;;
71490;SDS011;59307;50.060;9.150;2023-04-06T04:01:57;14.70;;;7.00;;
71490;SDS011;59307;50.060;9.150;2023-04-06T04:04:22;16.10;;;7.27;;
71490;SDS011;59307;50.060;9.150;2023-04-06T04:06:47;13.57;;;6.83;;
71490;SDS011;59307;50.060;9.150;2023-04-06T04:09:12;14.93;;;7.67;;
71490;SDS011;59307;50.060;9.150;2023-04-06T04:11:38;18.07;;;8.87;;
71490;SDS011;59307;50.060;9.150;2023-04-06T04:14:03;17.60;;;8.57;;
71490;SDS011;59307;50.060;9.150;2023-04-06T04:16:28;14.50;;;7.23;;
71490;SDS011;59307;50.060;9.150;2023-04-06T04:18:53;13.97;;;7.53;;
71490;SDS011;59307;50.060;9.150;2023-04-06T04:21:19;16.37;;;7.70;;
71490;SDS011;59307;50.060;9.150;2023-04-06T04:23:44;15.63;;;7.67;;
71490;SDS011;59307;50.060;9.150;2023-04-06T04:26:09;17.40;;;7.43;;
71490;SDS011;59307;50.060;9.150;2023-04-06T04:28:35;11.70;;;6.47;;
71490;SDS011;59307;50.060;9.150;2023-04-06T04:31:00;16.63;;;7.70;;
71490;SDS011;59307;50.060;9.150;2023-04-06T04:33:25;14.03;;;7.27;;
71490;SDS011;59307;50.060;9.150;2023-04-06T04:35:50;15.37;;;7.70;;
71490;SDS011;59307;50.060;9.150;2023-04-06T04:38:16;18.97;;;8.53;;
71490;SDS011;59307;50.060;9.150;2023-04-06T04:40:41;15.50;;;7.73;;
71490;SDS011;59307;50.060;9.150;2023-04-06T04:43:06;15.50;;;7.47;;
71490;SDS011;59307;50.060;9.150;2023-04-06T04:45:31;16.70;;;7.87;;
71490;SDS011;59307;50.060;9.150;2023-04-06T04:47:56;16.40;;;8.10;;
71490;SDS011;59307;50.060;9.150;2023-04-06T04:50:21;15.43;;;8.13;;
71490;SDS011;59307;50.060;9.150;2023-04-06T04:52:47;15.83;;;8.47;;
71490;SDS011;59307;50.060;9.150;2023-04-06T04:55:13;13.67;;;7.17;;
71490;SDS011;59307;50.060;9.150;2023-04-06T04:57:38;14.80;;;7.97;;
71490;SDS011;59307;50.060;9.150;2023-04-06T05:00:03;16.63;;;7.43;;
71490;SDS011;59307;50.060;9.150;2023-04-06T05:02:29;17.00;;;7.90;;
71490;SDS011;59307;50.060;9.150;2023-04-06T05:04:54;13.30;;;7.33;;
71490;SDS011;59307;50.060;9.150;2023-04-06T05:07:19;15.30;;;7.70;;
71490;SDS011;59307;50.060;9.150;2023-04-06T05:09:45;13.30;;;7.50;;
71490;SDS011;59307;50.060;9.150;2023-04-06T05:12:11;14.23;;;8.20;;
71490;SDS011;59307;50.060;9.150;2023-04-06T05:14:36;12.77;;;7.17;;
71490;SDS011;59307;50.060;9.150;2023-04-06T05:17:01;16.55;;;8.30;;
71490;SDS011;59307;50.060;9.150;2023-04-06T05:19:26;13.73;;;7.10;;
71490;SDS011;59307;50.060;9.150;2023-04-06T05:21:52;14.60;;;7.50;;
71490;SDS011;59307;50.060;9.150;2023-04-06T05:24:17;14.07;;;7.40;;
71490;SDS011;59307;50.060;9.150;2023-04-06T05:26:42;13.23;;;6.90;;
71490;SDS011;59307;50.060;9.150;2023-04-06T05:29:07;12.40;;;6.83;;
71490;SDS011;59307;50.060;9.150;2023-04-06T05:31:32;14.63;;;7.57;;
71490;SDS011;59307;50.060;9.150;2023-04-06T05:33:58;14.00;;;6.73;;
71490;SDS011;59307;50.060;9.150;2023-04-06T05:36:23;12.43;;;6.70;;
71490;SDS011;59307;50.060;9.150;2023-04-06T05:38:48;14.37;;;7.20;;
71490;SDS011;59307;50.060;9.150;2023-04-06T05:41:15;15.02;;;7.38;;
71490;SDS011;59307;50.060;9.150;2023-04-06T05:43:40;16.90;;;6.70;;
71490;SDS011;59307;50.060;9.150;2023-04-06T05:46:05;13.30;;;7.30;;
71490;SDS011;59307;50.060;9.150;2023-04-06T05:48:31;15.80;;;7.60;;
71490;SDS011;59307;50.060;9.150;2023-04-06T05:50:56;12.50;;;6.60;;
71490;SDS011;59307;50.060;9.150;2023-04-06T05:53:21;17.00;;;7.37;;
71490;SDS011;59307;50.060;9.150;2023-04-06T05:55:46;15.27;;;7.53;;
71490;SDS011;59307;50.060;9.150;2023-04-06T05:58:12;13.50;;;7.33;;
71490;SDS011;59307;50.060;9.150;2023-04-06T06:00:37;13.23;;;7.23;;
71490;SDS011;59307;50.060;9.150;2023-04-06T06:03:02;12.83;;;6.93;;
71490;SDS011;59307;50.060;9.150;2023-04-06T06:05:31;13.68;;;6.35;;
71490;SDS011;59307;50.060;9.150;2023-04-06T06:07:56;16.30;;;7.10;;
71490;SDS011;59307;50.060;9.150;2023-04-06T06:10:21;16.77;;;7.27;;
71490;SDS011;59307;50.060;9.150;2023-04-06T06:12:46;11.10;;;6.90;;
71490;SDS011;59307;50.060;9.150;2023-04-06T06:15:11;15.27;;;7.90;;
71490;SDS011;59307;50.060;9.150;2023-04-06T06:17:37;11.90;;;7.20;;
71490;SDS011;59307;50.060;9.150;2023-04-06T06:20:03;15.77;;;7.60;;
71490;SDS011;59307;50.060;9.150;2023-04-06T06:22:30;15.13;;;7.88;;
71490;SDS011;59307;50.060;9.150;2023-04-06T06:24:55;13.73;;;8.00;;
71490;SDS011;59307;50.060;9.150;2023-04-06T06:27:20;13.83;;;7.53;;
71490;SDS011;59307;50.060;9.150;2023-04-06T06:29:46;13.80;;;7.93;;
71490;SDS011;59307;50.060;9.150;2023-04-06T06:32:11;19.50;;;8.67;;
71490;SDS011;59307;50.060;9.150;2023-04-06T06:34:36;19.60;;;10.03;;
71490;SDS011;59307;50.060;9.150;2023-04-06T06:37:01;16.97;;;10.40;;
71490;SDS011;59307;50.060;9.150;2023-04-06T06:39:27;19.13;;;10.57;;
71490;SDS011;59307;50.060;9.150;2023-04-06T06:41:52;15.00;;;8.60;;
71490;SDS011;59307;50.060;9.150;2023-04-06T06:44:19;15.77;;;9.45;;
71490;SDS011;59307;50.060;9.150;2023-04-06T06:46:45;15.87;;;9.10;;
71490;SDS011;59307;50.060;9.150;2023-04-06T06:49:10;15.73;;;9.43;;
71490;SDS011;59307;50.060;9.150;2023-04-06T06:51:37;25.23;;;12.55;;
71490;SDS011;59307;50.060;9.150;2023-04-06T06:54:02;41.73;;;21.57;;
71490;SDS011;59307;50.060;9.150;2023-04-06T06:56:27;43.07;;;23.17;;
71490;SDS011;59307;50.060;9.150;2023-04-06T06:58:52;25.60;;;13.70;;
71490;SDS011;59307;50.060;9.150;2023-04-06T07:01:18;19.27;;;11.10;;
71490;SDS011;59307;50.060;9.150;2023-04-06T07:03:43;17.47;;;10.03;;
71490;SDS011;59307;50.060;9.150;2023-04-06T07:06:08;16.07;;;9.23;;
71490;SDS011;59307;50.060;9.150;2023-04-06T07:08:33;13.30;;;7.53;;
71490;SDS011;59307;50.060;9.150;2023-04-06T07:10:58;13.63;;;8.00;;
71490;SDS011;59307;50.060;9.150;2023-04-06T07:13:24;15.53;;;7.93;;
71490;SDS011;59307;50.060;9.150;2023-04-06T07:15:49;16.73;;;8.73;;
71490;SDS011;59307;50.060;9.150;2023-04-06T07:18:15;17.40;;;9.00;;
71490;SDS011;59307;50.060;9.150;2023-04-06T07:20:40;14.53;;;8.10;;
71490;SDS011;59307;50.060;9.150;2023-04-06T07:23:06;18.73;;;7.20;;
71490;SDS011;59307;50.060;9.150;2023-04-06T07:25:31;15.10;;;7.60;;
71490;SDS011;59307;50.060;9.150;2023-04-06T07:27:56;13.83;;;7.00;;
71490;SDS011;59307;50.060;9.150;2023-04-06T07:30:21;12.23;;;7.10;;
71490;SDS011;59307;50.060;9.150;2023-04-06T07:32:47;12.02;;;6.68;;
71490;SDS011;59307;50.060;9.150;2023-04-06T07:35:12;11.63;;;6.47;;
71490;SDS011;59307;50.060;9.150;2023-04-06T07:37:38;13.17;;;6.83;;
71490;SDS011;59307;50.060;9.150;2023-04-06T07:40:03;11.03;;;6.80;;
71490;SDS011;59307;50.060;9.150;2023-04-06T07:42:28;11.20;;;7.22;;
71490;SDS011;59307;50.060;9.150;2023-04-06T07:44:53;12.07;;;6.67;;
71490;SDS011;59307;50.060;9.150;2023-04-06T07:47:19;10.23;;;5.97;;
71490;SDS011;59307;50.060;9.150;2023-04-06T07:49:44;9.80;;;6.10;;
71490;SDS011;59307;50.060;9.150;2023-04-06T07:52:10;12.03;;;6.33;;
71490;SDS011;59307;50.060;9.150;2023-04-06T07:54:35;11.77;;;6.40;;
71490;SDS011;59307;50.060;9.150;2023-04-06T07:57:00;12.93;;;6.03;;
71490;SDS011;59307;50.060;9.150;2023-04-06T07:59:25;11.83;;;5.97;;
71490;SDS011;59307;50.060;9.150;2023-04-06T08:01:50;11.23;;;6.17;;
71490;SDS011;59307;50.060;9.150;2023-04-06T08:04:15;12.90;;;6.53;;
71490;SDS011;59307;50.060;9.150;2023-04-06T08:06:41;10.50;;;6.00;;
71490;SDS011;59307;50.060;9.150;2023-04-06T08:09:06;12.30;;;6.93;;
71490;SDS011;59307;50.060;9.150;2023-04-06T08:11:31;13.60;;;6.50;;
71490;SDS011;59307;50.060;9.150;2023-04-06T08:13:57;12.07;;;6.47;;
71490;SDS011;59307;50.060;9.150;2023-04-06T08:16:22;12.43;;;6.28;;
71490;SDS011;59307;50.060;9.150;2023-04-06T08:18:47;10.27;;;6.10;;
71490;SDS011;59307;50.060;9.150;2023-04-06T08:21:13;10.90;;;6.50;;
71490;SDS011;59307;50.060;9.150;2023-04-06T08:23:38;9.67;;;6.07;;
71490;SDS011;59307;50.060;9.150;2023-04-06T08:26:03;13.97;;;6.67;;
71490;SDS011;59307;50.060;9.150;2023-04-06T08:28:28;11.33;;;6.10;;
71490;SDS011;59307;50.060;9.150;2023-04-06T08:30:53;12.33;;;6.10;;
71490;SDS011;59307;50.060;9.150;2023-04-06T08:33:19;11.47;;;6.10;;
71490;SDS011;59307;50.060;9.150;2023-04-06T08:35:44;11.17;;;6.17;;
71490;SDS011;59307;50.060;9.150;2023-04-06T08:38:09;12.53;;;6.13;;
71490;SDS011;59307;50.060;9.150;2023-04-06T08:40:38;11.30;;;5.77;;
71490;SDS011;59307;50.060;9.150;2023-04-06T08:43:03;10.67;;;5.60;;
71490;SDS011;59307;50.060;9.150;2023-04-06T08:45:33;12.27;;;5.90;;
71490;SDS011;59307;50.060;9.150;2023-04-06T08:47:58;11.03;;;5.60;;
71490;SDS011;59307;50.060;9.150;2023-04-06T08:50:26;12.05;;;6.15;;
71490;SDS011;59307;50.060;9.150;2023-04-06T08:52:52;11.60;;;6.05;;
71490;SDS011;59307;50.060;9.150;2023-04-06T08:55:18;9.98;;;5.60;;
71490;SDS011;59307;50.060;9.150;2023-04-06T08:57:44;10.27;;;5.80;;
71490;SDS011;59307;50.060;9.150;2023-04-06T09:00:10;10.53;;;5.77;;
71490;SDS011;59307;50.060;9.150;2023-04-06T09:02:39;11.07;;;5.55;;
71490;SDS011;59307;50.060;9.150;2023-04-06T09:05:05;10.27;;;5.80;;
71490;SDS011;59307;50.060;9.150;2023-04-06T09:07:32;9.53;;;5.57;;
71490;SDS011;59307;50.060;9.150;2023-04-06T09:09:57;9.43;;;5.13;;
71490;SDS011;59307;50.060;9.150;2023-04-06T09:12:26;10.20;;;5.50;;
71490;SDS011;59307;50.060;9.150;2023-04-06T09:14:52;11.15;;;5.80;;
71490;SDS011;59307;50.060;9.150;2023-04-06T09:17:21;10.70;;;5.67;;
71490;SDS011;59307;50.060;9.150;2023-04-06T09:19:47;10.82;;;5.90;;
71490;SDS011;59307;50.060;9.150;2023-04-06T09:22:12;9.87;;;5.77;;
71490;SDS011;59307;50.060;9.150;2023-04-06T09:24:41;11.87;;;5.73;;
71490;SDS011;59307;50.060;9.150;2023-04-06T09:27:06;11.10;;;5.82;;
71490;SDS011;59307;50.060;9.150;2023-04-06T09:29:31;10.83;;;5.97;;
71490;SDS011;59307;50.060;9.150;2023-04-06T09:32:03;10.20;;;5.77;;
71490;SDS011;59307;50.060;9.150;2023-04-06T09:34:29;11.98;;;6.53;;
71490;SDS011;59307;50.060;9.150;2023-04-06T09:36:54;10.83;;;6.03;;
71490;SDS011;59307;50.060;9.150;2023-04-06T09:39:21;11.20;;;5.90;;
71490;SDS011;59307;50.060;9.150;2023-04-06T09:41:49;14.40;;;6.30;;
71490;SDS011;59307;50.060;9.150;2023-04-06T09:44:15;12.07;;;6.13;;
71490;SDS011;59307;50.060;9.150;2023-04-06T09:46:41;12.77;;;6.10;;
71490;SDS011;59307;50.060;9.150;2023-04-06T09:49:06;12.23;;;5.63;;
71490;SDS011;59307;50.060;9.150;2023-04-06T09:51:39;11.80;;;6.30;;
71490;SDS011;59307;50.060;9.150;2023-04-06T09:54:04;11.77;;;5.97;;
71490;SDS011;59307;50.060;9.150;2023-04-06T09:56:31;13.23;;;5.53;;
71490;SDS011;59307;50.060;9.150;2023-04-06T09:59:01;13.07;;;5.78;;
71490;SDS011;59307;50.060;9.150;2023-04-06T10:01:28;16.05;;;6.53;;
71490;SDS011;59307;50.060;9.150;2023-04-06T10:06:22;15.00;;;6.50;;
71490;SDS011;59307;50.060;9.150;2023-04-06T10:08:49;15.03;;;6.70;;
71490;SDS011;59307;50.060;9.150;2023-04-06T10:11:15;14.23;;;6.68;;
71490;SDS011;59307;50.060;9.150;2023-04-06T10:13:40;17.13;;;6.77;;
71490;SDS011;59307;50.060;9.150;2023-04-06T10:16:06;14.05;;;6.70;;
71490;SDS011;59307;50.060;9.150;2023-04-06T10:18:32;14.20;;;6.53;;
71490;SDS011;59307;50.060;9.150;2023-04-06T10:21:05;13.60;;;6.67;;
71490;SDS011;59307;50.060;9.150;2023-04-06T10:23:33;12.93;;;6.20;;
71490;SDS011;59307;50.060;9.150;2023-04-06T10:25:59;12.13;;;6.40;;
71490;SDS011;59307;50.060;9.150;2023-04-06T10:28:25;14.07;;;7.10;;
71490;SDS011;59307;50.060;9.150;2023-04-06T10:31:00;13.40;;;6.97;;
71490;SDS011;59307;50.060;9.150;2023-04-06T10:33:26;14.35;;;6.85;;
71490;SDS011;59307;50.060;9.150;2023-04-06T10:35:51;12.85;;;6.57;;
71490;SDS011;59307;50.060;9.150;2023-04-06T10:38:17;15.27;;;6.97;;
71490;SDS011;59307;50.060;9.150;2023-04-06T10:40:46;14.10;;;7.03;;
71490;SDS011;59307;50.060;9.150;2023-04-06T10:43:21;12.32;;;6.53;;
71490;SDS011;59307;50.060;9.150;2023-04-06T10:45:56;12.48;;;6.20;;
71490;SDS011;59307;50.060;9.150;2023-04-06T10:48:22;11.88;;;6.45;;
71490;SDS011;59307;50.060;9.150;2023-04-06T10:50:49;13.45;;;6.63;;
71490;SDS011;59307;50.060;9.150;2023-04-06T10:53:21;12.43;;;5.63;;
71490;SDS011;59307;50.060;9.150;2023-04-06T10:55:46;11.98;;;6.18;;
71490;SDS011;59307;50.060;9.150;2023-04-06T10:58:12;13.13;;;6.05;;
71490;SDS011;59307;50.060;9.150;2023-04-06T11:00:43;11.23;;;6.03;;
71490;SDS011;59307;50.060;9.150;2023-04-06T11:03:09;13.88;;;6.20;;
71490;SDS011;59307;50.060;9.150;2023-04-06T11:05:35;13.33;;;5.97;;
71490;SDS011;59307;50.060;9.150;2023-04-06T11:08:00;13.30;;;6.17;;
71490;SDS011;59307;50.060;9.150;2023-04-06T11:10:26;12.10;;;6.57;;
71490;SDS011;59307;50.060;9.150;2023-04-06T11:12:54;13.83;;;6.20;;
71490;SDS011;59307;50.060;9.150;2023-04-06T11:15:19;11.45;;;6.57;;
71490;SDS011;59307;50.060;9.150;2023-04-06T11:17:45;13.23;;;6.70;;
71490;SDS011;59307;50.060;9.150;2023-04-06T11:20:10;13.03;;;6.60;;
71490;SDS011;59307;50.060;9.150;2023-04-06T11:22:36;14.43;;;6.53;;
71490;SDS011;59307;50.060;9.150;2023-04-06T11:25:05;14.10;;;6.70;;
71490;SDS011;59307;50.060;9.150;2023-04-06T11:27:30;11.80;;;6.75;;
71490;SDS011;59307;50.060;9.150;2023-04-06T11:29:57;14.55;;;7.40;;
71490;SDS011;59307;50.060;9.150;2023-04-06T11:32:22;13.50;;;6.43;;
71490;SDS011;59307;50.060;9.150;2023-04-06T11:34:48;13.83;;;6.93;;
71490;SDS011;59307;50.060;9.150;2023-04-06T11:37:13;11.90;;;5.93;;
71490;SDS011;59307;50.060;9.150;2023-04-06T11:39:40;13.03;;;6.47;;
71490;SDS011;59307;50.060;9.150;2023-04-06T11:42:05;12.73;;;6.53;;
71490;SDS011;59307;50.060;9.150;2023-04-06T11:44:43;11.63;;;6.90;;
71490;SDS011;59307;50.060;9.150;2023-04-06T11:47:10;11.57;;;6.68;;
71490;SDS011;59307;50.060;9.150;2023-04-06T11:49:36;16.00;;;7.00;;
71490;SDS011;59307;50.060;9.150;2023-04-06T11:52:02;12.05;;;6.05;;
71490;SDS011;59307;50.060;9.150;2023-04-06T11:54:34;17.23;;;6.83;;
71490;SDS011;59307;50.060;9.150;2023-04-06T11:56:59;12.93;;;7.32;;
71490;SDS011;59307;50.060;9.150;2023-04-06T11:59:25;11.38;;;6.45;;
71490;SDS011;59307;50.060;9.150;2023-04-06T12:01:52;12.53;;;6.53;;
71490;SDS011;59307;50.060;9.150;2023-04-06T12:04:18;12.85;;;6.63;;
71490;SDS011;59307;50.060;9.150;2023-04-06T12:06:43;13.87;;;6.70;;
71490;SDS011;59307;50.060;9.150;2023-04-06T12:09:08;13.07;;;6.70;;
71490;SDS011;59307;50.060;9.150;2023-04-06T12:11:33;11.93;;;7.00;;
71490;SDS011;59307;50.060;9.150;2023-04-06T12:13:58;12.07;;;6.23;;
71490;SDS011;59307;50.060;9.150;2023-04-06T12:16:26;10.32;;;6.00;;
71490;SDS011;59307;50.060;9.150;2023-04-06T12:18:51;11.37;;;6.03;;
71490;SDS011;59307;50.060;9.150;2023-04-06T12:21:16;10.77;;;5.97;;
71490;SDS011;59307;50.060;9.150;2023-04-06T12:23:42;11.07;;;6.20;;
71490;SDS011;59307;50.060;9.150;2023-04-06T12:26:07;12.03;;;6.13;;
71490;SDS011;59307;50.060;9.150;2023-04-06T12:28:32;13.07;;;5.80;;
71490;SDS011;59307;50.060;9.150;2023-04-06T12:30:57;11.13;;;5.57;;
71490;SDS011;59307;50.060;9.150;2023-04-06T12:33:22;11.97;;;6.30;;
71490;SDS011;59307;50.060;9.150;2023-04-06T12:35:47;14.33;;;6.27;;
71490;SDS011;59307;50.060;9.150;2023-04-06T12:38:13;12.73;;;6.27;;
71490;SDS011;59307;50.060;9.150;2023-04-06T12:40:38;14.13;;;6.38;;
71490;SDS011;59307;50.060;9.150;2023-04-06T12:43:04;16.57;;;5.83;;
71490;SDS011;59307;50.060;9.150;2023-04-06T12:45:30;10.10;;;6.07;;
71490;SDS011;59307;50.060;9.150;2023-04-06T12:47:56;10.77;;;6.03;;
71490;SDS011;59307;50.060;9.150;2023-04-06T12:50:22;11.88;;;6.18;;
71490;SDS011;59307;50.060;9.150;2023-04-06T12:52:47;11.33;;;6.30;;
71490;SDS011;59307;50.060;9.150;2023-04-06T12:55:12;9.23;;;4.93;;
71490;SDS011;59307;50.060;9.150;2023-04-06T12:57:37;10.53;;;6.03;;
71490;SDS011;59307;50.060;9.150;2023-04-06T13:00:03;11.13;;;5.63;;
71490;SDS011;59307;50.060;9.150;2023-04-06T13:02:29;9.18;;;5.50;;
71490;SDS011;59307;50.060;9.150;2023-04-06T13:04:55;10.88;;;5.50;;
71490;SDS011;59307;50.060;9.150;2023-04-06T13:07:20;10.93;;;5.87;;
71490;SDS011;59307;50.060;9.150;2023-04-06T13:09:45;12.87;;;5.37;;
71490;SDS011;59307;50.060;9.150;2023-04-06T13:12:12;11.25;;;5.85;;
71490;SDS011;59307;50.060;9.150;2023-04-06T13:14:37;14.43;;;5.30;;
71490;SDS011;59307;50.060;9.150;2023-04-06T13:17:04;10.25;;;6.07;;
71490;SDS011;59307;50.060;9.150;2023-04-06T13:19:29;11.73;;;6.27;;
71490;SDS011;59307;50.060;9.150;2023-04-06T13:21:56;10.75;;;5.63;;
71490;SDS011;59307;50.060;9.150;2023-04-06T13:24:21;9.87;;;5.60;;
71490;SDS011;59307;50.060;9.150;2023-04-06T13:26:48;11.43;;;5.40;;
71490;SDS011;59307;50.060;9.150;2023-04-06T13:29:13;12.83;;;5.50;;
71490;SDS011;59307;50.060;9.150;2023-04-06T13:31:38;10.10;;;5.77;;
71490;SDS011;59307;50.060;9.150;2023-04-06T13:34:04;10.77;;;5.63;;
71490;SDS011;59307;50.060;9.150;2023-04-06T13:36:29;11.30;;;5.60;;
71490;SDS011;59307;50.060;9.150;2023-04-06T13:38:55;9.52;;;5.13;;
71490;SDS011;59307;50.060;9.150;2023-04-06T13:41:21;11.93;;;6.30;;
71490;SDS011;59307;50.060;9.150;2023-04-06T13:43:46;12.38;;;6.03;;
71490;SDS011;59307;50.060;9.150;2023-04-06T13:46:12;10.47;;;5.80;;
71490;SDS011;59307;50.060;9.150;2023-04-06T13:48:37;11.20;;;5.90;;
71490;SDS011;59307;50.060;9.150;2023-04-06T13:51:09;13.97;;;5.50;;
71490;SDS011;59307;50.060;9.150;2023-04-06T13:53:34;10.85;;;5.47;;
71490;SDS011;59307;50.060;9.150;2023-04-06T13:56:00;9.83;;;5.50;;
71490;SDS011;59307;50.060;9.150;2023-04-06T13:58:25;10.80;;;6.10;;
71490;SDS011;59307;50.060;9.150;2023-04-06T14:00:50;12.10;;;6.50;;
71490;SDS011;59307;50.060;9.150;2023-04-06T14:03:15;10.17;;;5.70;;
71490;SDS011;59307;50.060;9.150;2023-04-06T14:05:41;9.10;;;5.20;;
71490;SDS011;59307;50.060;9.150;2023-04-06T14:08:06;12.50;;;5.50;;
71490;SDS011;59307;50.060;9.150;2023-04-06T14:10:31;10.00;;;5.67;;
71490;SDS011;59307;50.060;9.150;2023-04-06T14:12:56;11.63;;;5.90;;
71490;SDS011;59307;50.060;9.150;2023-04-06T14:15:23;9.70;;;5.50;;
71490;SDS011;59307;50.060;9.150;2023-04-06T14:17:48;10.13;;;5.43;;
71490;SDS011;59307;50.060;9.150;2023-04-06T14:20:13;10.90;;;4.90;;
71490;SDS011;59307;50.060;9.150;2023-04-06T14:22:40;9.75;;;5.05;;
71490;SDS011;59307;50.060;9.150;2023-04-06T14:25:06;10.02;;;5.18;;
71490;SDS011;59307;50.060;9.150;2023-04-06T14:27:31;10.47;;;5.00;;
71490;SDS011;59307;50.060;9.150;2023-04-06T14:29:57;11.60;;;5.67;;